Time;durP1;ratioP1;P1;durP2;ratioP2;P2;SDS_P1;SDS_P2;PMS_P1;PMS_P2;Temp;Humidity;BMP_temperature;BMP_pressure;BME280_temperature;BME280_humidity;BME280_pressure;Samples;Min_cycle;Max_cycle;Signal;HPM_P1;HPM_P2
2023/01/04 00:01:39;;;;;;;5.03;4.53;;;;;;;;;;5112568;28;20204;-83
2023/01/04 00:04:09;;;;;;;5.47;3.73;;;;;;;;;;5112943;28;20645;-83
2023/01/04 00:06:36;;;;;;;4.47;3.83;;;;;;;;;;5092759;28;20683;-82
2023/01/04 00:09:03;;;;;;;4.07;3.67;;;;;;;;;;5058169;28;20220;-82
2023/01/04 00:11:30;;;;;;;4.47;3.87;;;;;;;;;;5075045;28;20249;-83
2023/01/04 00:13:59;;;;;;;5.20;4.17;;;;;;;;;;5108038;28;20705;-83
2023/01/04 00:16:27;;;;;;;5.10;4.30;;;;;;;;;;5094595;28;20288;-82
2023/01/04 00:18:55;;;;;;;5.53;3.87;;;;;;;;;;5112157;28;20208;-83
2023/01/04 00:21:24;;;;;;;6.60;4.03;;;;;;;;;;5112685;28;20206;-83
2023/01/04 00:23:53;;;;;;;5.57;3.80;;;;;;;;;;5113317;28;20214;-83
2023/01/04 00:26:21;;;;;;;5.13;4.30;;;;;;;;;;5112487;28;20195;-82
2023/01/04 00:28:48;;;;;;;4.60;3.97;;;;;;;;;;5112248;28;20729;-82
2023/01/04 00:31:16;;;;;;;4.83;4.37;;;;;;;;;;5112705;28;20203;-82
2023/01/04 00:33:43;;;;;;;5.70;4.73;;;;;;;;;;5090181;28;20644;-82
2023/01/04 00:36:11;;;;;;;5.03;4.60;;;;;;;;;;5103403;28;20278;-82
2023/01/04 00:38:40;;;;;;;6.33;4.53;;;;;;;;;;5112403;28;20214;-83
2023/01/04 00:41:08;;;;;;;4.50;4.10;;;;;;;;;;5112295;28;20211;-82
2023/01/04 00:43:35;;;;;;;6.13;4.47;;;;;;;;;;5093447;28;20629;-83
2023/01/04 00:46:02;;;;;;;5.87;4.43;;;;;;;;;;5091437;28;20208;-83
2023/01/04 00:48:29;;;;;;;4.37;3.97;;;;;;;;;;5091963;28;20220;-83
2023/01/04 00:50:57;;;;;;;5.13;4.60;;;;;;;;;;5092079;28;20258;-83
2023/01/04 00:53:24;;;;;;;6.10;4.47;;;;;;;;;;5073879;28;20593;-83
2023/01/04 00:55:52;;;;;;;5.80;4.30;;;;;;;;;;5074296;28;20211;-82
2023/01/04 00:58:19;;;;;;;5.50;4.60;;;;;;;;;;5078898;28;20231;-82
2023/01/04 01:00:46;;;;;;;5.70;3.93;;;;;;;;;;5090944;28;20227;-82
2023/01/04 01:03:13;;;;;;;5.67;5.17;;;;;;;;;;5092201;28;20487;-83
2023/01/04 01:05:40;;;;;;;5.40;4.83;;;;;;;;;;5073444;28;20278;-82
2023/01/04 01:10:48;;;;;;;5.53;4.97;;;;;;;;;;5074989;28;20706;-82
2023/01/04 01:13:16;;;;;;;5.20;4.57;;;;;;;;;;5091180;28;20208;-83
2023/01/04 01:15:43;;;;;;;6.10;4.60;;;;;;;;;;5091405;28;20267;-81
2023/01/04 01:18:11;;;;;;;5.20;4.70;;;;;;;;;;5091773;28;20204;-83
2023/01/04 01:20:43;;;;;;;5.07;4.57;;;;;;;;;;5091087;28;20204;-83
2023/01/04 01:23:11;;;;;;;5.17;4.63;;;;;;;;;;5102413;28;20203;-82
2023/01/04 01:25:38;;;;;;;7.87;4.57;;;;;;;;;;5097411;28;20230;-83
2023/01/04 01:28:05;;;;;;;5.33;4.83;;;;;;;;;;5112169;28;20284;-83
2023/01/04 01:30:33;;;;;;;4.93;4.37;;;;;;;;;;5111098;28;20203;-83
2023/01/04 01:33:00;;;;;;;6.53;4.73;;;;;;;;;;5111823;28;20594;-83
2023/01/04 01:35:27;;;;;;;7.43;4.63;;;;;;;;;;5096844;28;20207;-83
2023/01/04 01:37:54;;;;;;;5.57;5.03;;;;;;;;;;5092871;28;20207;-82
2023/01/04 01:40:21;;;;;;;7.77;4.27;;;;;;;;;;5111193;28;20199;-83
2023/01/04 01:42:48;;;;;;;6.67;4.97;;;;;;;;;;5093045;28;20586;-83
2023/01/04 01:45:37;;;;;;;5.43;4.70;;;;;;;;;;5110475;28;20199;-83
2023/01/04 01:48:07;;;;;;;6.37;4.73;;;;;;;;;;5104919;28;20701;-82
2023/01/04 01:50:37;;;;;;;6.83;4.63;;;;;;;;;;5111003;28;20199;-83
2023/01/04 01:53:05;;;;;;;6.53;4.70;;;;;;;;;;5110489;28;20213;-83
2023/01/04 01:55:34;;;;;;;5.17;4.67;;;;;;;;;;5111197;28;20242;-83
2023/01/04 01:58:01;;;;;;;6.37;5.67;;;;;;;;;;5110876;28;20678;-82
2023/01/04 02:00:29;;;;;;;6.07;5.23;;;;;;;;;;5093096;28;20602;-83
2023/01/04 02:03:06;;;;;;;7.20;5.63;;;;;;;;;;5110793;28;20199;-82
2023/01/04 02:05:33;;;;;;;5.73;5.13;;;;;;;;;;5110743;28;20295;-82
2023/01/04 02:08:01;;;;;;;5.13;4.63;;;;;;;;;;5105045;28;20220;-83
2023/01/04 02:10:28;;;;;;;6.17;5.00;;;;;;;;;;5090420;28;20207;-83
2023/01/04 02:12:55;;;;;;;6.13;4.80;;;;;;;;;;5090989;28;20238;-82
2023/01/04 02:15:24;;;;;;;5.50;4.60;;;;;;;;;;5072695;28;20200;-82
2023/01/04 02:17:56;;;;;;;4.60;4.20;;;;;;;;;;5076881;28;20206;-83
2023/01/04 02:20:33;;;;;;;7.90;4.90;;;;;;;;;;5090673;28;20204;-82
2023/01/04 02:23:28;;;;;;;7.23;5.03;;;;;;;;;;5090855;28;20281;-83
2023/01/04 02:26:42;;;;;;;4.90;4.30;;;;;;;;;;5090179;28;20203;-82
2023/01/04 02:29:59;;;;;;;5.77;4.37;;;;;;;;;;5008227;28;20223;-83
2023/01/04 02:32:33;;;;;;;6.67;5.43;;;;;;;;;;5090258;28;20618;-82
2023/01/04 02:35:07;;;;;;;7.47;4.87;;;;;;;;;;5090516;28;20656;-83
2023/01/04 02:37:40;;;;;;;6.50;5.57;;;;;;;;;;5090172;28;20208;-83
2023/01/04 02:40:12;;;;;;;5.20;4.70;;;;;;;;;;5090098;28;20200;-82
2023/01/04 02:45:34;;;;;;;5.43;4.77;;;;;;;;;;5090362;28;20764;-83
2023/01/04 02:50:53;;;;;;;6.23;5.40;;;;;;;;;;5094006;28;20292;-82
2023/01/04 02:53:22;;;;;;;5.83;4.70;;;;;;;;;;5094483;28;20246;-82
2023/01/04 02:55:54;;;;;;;7.47;5.23;;;;;;;;;;5094160;28;20643;-82
2023/01/04 02:58:36;;;;;;;7.70;4.90;;;;;;;;;;5094225;28;20213;-83
2023/01/04 03:06:59;;;;;;;6.60;5.40;;;;;;;;;;5094274;28;20300;-82
2023/01/04 03:09:28;;;;;;;6.20;5.13;;;;;;;;;;5094106;28;20285;-82
2023/01/04 03:14:44;;;;;;;7.23;5.47;;;;;;;;;;5081850;28;20211;-82
2023/01/04 03:17:13;;;;;;;6.37;5.53;;;;;;;;;;5093475;28;20201;-82
2023/01/04 03:19:53;;;;;;;6.67;5.23;;;;;;;;;;5093677;28;20208;-82
2023/01/04 03:36:27;;;;;;;11.50;5.00;;;;;;;;;;5104809;28;20259;-83
2023/01/04 03:50:07;;;;;;;6.23;5.63;;;;;;;;;;5088400;28;20729;-83
2023/01/04 03:52:36;;;;;;;9.73;5.47;;;;;;;;;;5085475;28;20200;-83
2023/01/04 03:55:05;;;;;;;6.10;4.70;;;;;;;;;;5093503;28;20600;-84
2023/01/04 03:57:32;;;;;;;6.40;5.10;;;;;;;;;;5080092;28;20586;-85
2023/01/04 04:00:03;;;;;;;7.83;5.50;;;;;;;;;;5079493;28;20212;-83
2023/01/04 04:02:31;;;;;;;5.83;5.23;;;;;;;;;;5092954;28;20212;-83
2023/01/04 04:10:29;;;;;;;75.10;43.40;;;;;;;;;;5092627;28;20211;-83
2023/01/04 04:12:56;;;;;;;79.07;42.73;;;;;;;;;;5101904;28;20200;-84
2023/01/04 04:15:23;;;;;;;19.40;11.90;;;;;;;;;;5088077;28;20201;-83
2023/01/04 04:17:50;;;;;;;8.27;6.57;;;;;;;;;;5073994;28;20262;-84
2023/01/04 04:20:17;;;;;;;10.23;8.67;;;;;;;;;;5061400;28;20269;-83
2023/01/04 04:22:46;;;;;;;7.87;6.77;;;;;;;;;;5042482;28;20288;-82
2023/01/04 04:25:13;;;;;;;5.97;5.37;;;;;;;;;;5089880;28;20212;-83
2023/01/04 04:27:39;;;;;;;5.83;5.23;;;;;;;;;;5087278;28;20245;-80
2023/01/04 04:30:07;;;;;;;7.17;6.20;;;;;;;;;;5092118;28;20224;-79
2023/01/04 04:32:34;;;;;;;6.37;5.00;;;;;;;;;;5095939;28;20199;-82
2023/01/04 04:35:01;;;;;;;6.47;4.77;;;;;;;;;;5112283;28;20204;-81
2023/01/04 04:37:30;;;;;;;7.43;5.13;;;;;;;;;;5112401;28;20204;-80
2023/01/04 04:39:58;;;;;;;6.57;5.73;;;;;;;;;;5112206;28;20227;-80
2023/01/04 04:42:24;;;;;;;6.03;5.40;;;;;;;;;;5093956;28;20676;-82
2023/01/04 04:44:51;;;;;;;10.00;7.43;;;;;;;;;;5071791;28;20258;-82
2023/01/04 04:47:18;;;;;;;18.90;13.50;;;;;;;;;;5074407;28;20196;-83
2023/01/04 04:50:01;;;;;;;16.50;12.23;;;;;;;;;;5077621;28;20602;-83
2023/01/04 04:52:28;;;;;;;7.03;5.63;;;;;;;;;;5071132;28;20197;-83
2023/01/04 04:54:55;;;;;;;18.43;14.80;;;;;;;;;;5067222;28;20193;-82
2023/01/04 04:57:23;;;;;;;24.10;18.03;;;;;;;;;;5067053;28;20215;-83
2023/01/04 04:59:50;;;;;;;23.00;15.13;;;;;;;;;;5085602;28;20196;-83
2023/01/04 05:02:17;;;;;;;56.77;32.30;;;;;;;;;;5063385;28;20253;-84
2023/01/04 05:04:45;;;;;;;22.97;13.93;;;;;;;;;;5084583;28;20286;-83
2023/01/04 05:07:12;;;;;;;10.53;7.20;;;;;;;;;;5067600;28;20662;-83
2023/01/04 05:09:39;;;;;;;5.70;4.97;;;;;;;;;;5073003;28;20277;-82
2023/01/04 05:14:51;;;;;;;8.17;5.43;;;;;;;;;;5098503;28;20714;-83
2023/01/04 05:17:18;;;;;;;6.53;5.13;;;;;;;;;;5110458;28;20203;-83
2023/01/04 05:19:45;;;;;;;5.90;5.30;;;;;;;;;;5098095;28;20235;-83
2023/01/04 05:22:11;;;;;;;6.57;5.13;;;;;;;;;;5105091;28;20215;-83
2023/01/04 05:24:38;;;;;;;8.33;6.20;;;;;;;;;;5091530;28;20702;-83
2023/01/04 05:27:05;;;;;;;8.00;6.87;;;;;;;;;;5082328;28;20204;-84
2023/01/04 05:32:17;;;;;;;7.93;7.13;;;;;;;;;;5089048;28;20218;-84
2023/01/04 05:34:44;;;;;;;10.47;8.70;;;;;;;;;;5099308;28;20212;-83
2023/01/04 05:37:11;;;;;;;7.50;6.37;;;;;;;;;;5075928;28;20776;-83
2023/01/04 05:39:38;;;;;;;15.00;9.27;;;;;;;;;;5090597;28;20253;-84
2023/01/04 05:44:49;;;;;;;5.50;4.97;;;;;;;;;;5097181;28;20283;-83
2023/01/04 05:47:18;;;;;;;6.07;5.50;;;;;;;;;;5069231;28;20265;-83
2023/01/04 05:49:45;;;;;;;6.87;5.60;;;;;;;;;;5064852;28;20223;-83
2023/01/04 05:52:12;;;;;;;5.87;5.03;;;;;;;;;;5099009;28;20201;-83
2023/01/04 05:54:39;;;;;;;7.03;5.53;;;;;;;;;;5072451;28;20257;-83
2023/01/04 05:57:07;;;;;;;7.20;5.80;;;;;;;;;;5091435;28;20279;-84
2023/01/04 05:59:34;;;;;;;7.03;6.23;;;;;;;;;;5097176;28;20203;-83
2023/01/04 06:02:00;;;;;;;8.03;7.23;;;;;;;;;;5111189;28;20207;-83
2023/01/04 06:04:29;;;;;;;8.17;7.30;;;;;;;;;;5090764;28;20224;-84
2023/01/04 06:06:55;;;;;;;29.00;18.37;;;;;;;;;;5090192;28;20732;-84
2023/01/04 06:09:23;;;;;;;31.83;22.60;;;;;;;;;;5097972;28;21052;-83
2023/01/04 06:11:50;;;;;;;19.70;14.33;;;;;;;;;;5110268;28;20238;-83
2023/01/04 06:14:17;;;;;;;8.53;7.03;;;;;;;;;;5103834;28;20207;-83
2023/01/04 06:16:44;;;;;;;7.77;6.67;;;;;;;;;;5077291;28;20205;-83
2023/01/04 06:19:11;;;;;;;6.07;5.47;;;;;;;;;;5098338;28;20211;-82
2023/01/04 06:21:39;;;;;;;5.70;5.17;;;;;;;;;;5083582;28;20216;-81
2023/01/04 06:24:06;;;;;;;6.03;5.17;;;;;;;;;;5110687;28;20207;-82
2023/01/04 06:26:33;;;;;;;6.77;5.47;;;;;;;;;;5110112;28;20202;-83
2023/01/04 06:29:00;;;;;;;8.17;6.13;;;;;;;;;;5102079;28;20215;-82
2023/01/04 06:31:27;;;;;;;7.77;6.33;;;;;;;;;;5090545;28;20204;-82
2023/01/04 06:33:54;;;;;;;8.47;7.57;;;;;;;;;;5090310;28;20200;-83
2023/01/04 06:36:20;;;;;;;13.87;10.33;;;;;;;;;;5090074;28;20200;-83
2023/01/04 06:38:49;;;;;;;13.50;8.53;;;;;;;;;;5109807;28;20259;-83
2023/01/04 06:41:16;;;;;;;7.60;6.57;;;;;;;;;;5098079;28;20254;-83
2023/01/04 06:43:42;;;;;;;9.47;7.57;;;;;;;;;;5077235;28;20197;-84
2023/01/04 06:46:09;;;;;;;7.00;6.40;;;;;;;;;;5090649;28;20587;-83
2023/01/04 06:48:36;;;;;;;7.43;6.73;;;;;;;;;;5090626;28;20196;-84
2023/01/04 06:51:03;;;;;;;10.20;7.47;;;;;;;;;;5076633;28;20707;-83
2023/01/04 06:53:30;;;;;;;8.10;7.23;;;;;;;;;;5090223;28;20204;-83
2023/01/04 06:55:58;;;;;;;43.87;35.07;;;;;;;;;;5077269;28;20205;-83
2023/01/04 06:58:25;;;;;;;15.10;13.30;;;;;;;;;;5076656;28;20632;-83
2023/01/04 07:00:52;;;;;;;13.00;9.50;;;;;;;;;;5090075;28;20207;-84
2023/01/04 07:03:19;;;;;;;12.17;7.03;;;;;;;;;;5083014;28;20246;-83
2023/01/04 07:05:46;;;;;;;7.60;6.80;;;;;;;;;;5097841;28;20235;-83
2023/01/04 07:08:15;;;;;;;9.00;6.63;;;;;;;;;;5097808;28;20273;-84
2023/01/04 07:10:42;;;;;;;6.70;5.80;;;;;;;;;;5095634;28;20281;-83
2023/01/04 07:13:10;;;;;;;6.40;5.80;;;;;;;;;;5090298;28;20656;-83
2023/01/04 07:15:37;;;;;;;8.63;6.50;;;;;;;;;;5090131;28;20211;-82
2023/01/04 07:18:04;;;;;;;10.40;7.20;;;;;;;;;;5089929;28;20200;-83
2023/01/04 07:20:31;;;;;;;7.50;6.47;;;;;;;;;;5090094;28;20294;-83
2023/01/04 07:22:57;;;;;;;8.00;6.57;;;;;;;;;;5090288;28;20281;-83
2023/01/04 07:25:24;;;;;;;8.43;6.93;;;;;;;;;;5089927;28;20223;-83
2023/01/04 07:27:52;;;;;;;11.30;7.50;;;;;;;;;;5089806;28;20714;-82
2023/01/04 07:30:21;;;;;;;8.97;8.03;;;;;;;;;;5089602;28;20224;-84
2023/01/04 07:32:48;;;;;;;9.67;8.47;;;;;;;;;;5090171;28;20219;-83
2023/01/04 07:35:15;;;;;;;14.10;9.83;;;;;;;;;;5090039;28;20611;-83
2023/01/04 07:37:43;;;;;;;13.33;10.27;;;;;;;;;;5092718;28;20208;-84
2023/01/04 07:40:10;;;;;;;15.93;10.40;;;;;;;;;;5093452;28;20257;-83
2023/01/04 07:42:37;;;;;;;11.73;9.07;;;;;;;;;;5093663;28;20361;-82
2023/01/04 07:45:07;;;;;;;11.30;10.10;;;;;;;;;;5079286;28;20694;-83
2023/01/04 07:47:36;;;;;;;11.57;9.80;;;;;;;;;;5093389;28;20705;-82
2023/01/04 07:50:02;;;;;;;11.47;10.00;;;;;;;;;;5092895;28;20224;-83
2023/01/04 07:52:29;;;;;;;12.90;8.97;;;;;;;;;;5093667;28;20201;-82
2023/01/04 07:54:56;;;;;;;10.33;8.77;;;;;;;;;;5087703;28;20671;-83
2023/01/04 07:57:23;;;;;;;11.43;8.43;;;;;;;;;;5085054;28;20215;-83
2023/01/04 07:59:50;;;;;;;11.00;8.50;;;;;;;;;;5092466;28;20200;-83
2023/01/04 08:02:17;;;;;;;12.97;9.37;;;;;;;;;;5093626;28;20602;-83
2023/01/04 08:04:45;;;;;;;15.40;11.77;;;;;;;;;;5092699;28;20239;-83
2023/01/04 08:07:12;;;;;;;12.43;9.30;;;;;;;;;;5092795;28;20613;-84
2023/01/04 08:09:39;;;;;;;14.00;9.50;;;;;;;;;;5079215;28;20221;-83
2023/01/04 08:12:06;;;;;;;17.33;13.87;;;;;;;;;;5092747;28;20647;-84
2023/01/04 08:14:32;;;;;;;12.20;9.53;;;;;;;;;;5099356;28;20214;-83
2023/01/04 08:16:59;;;;;;;10.30;9.17;;;;;;;;;;5099014;28;20246;-84
2023/01/04 08:19:27;;;;;;;9.07;8.07;;;;;;;;;;5092366;28;20690;-83
2023/01/04 08:21:55;;;;;;;11.73;8.80;;;;;;;;;;5078857;28;20198;-83
2023/01/04 08:24:22;;;;;;;7.83;6.47;;;;;;;;;;5092636;28;20200;-83
2023/01/04 08:26:49;;;;;;;8.77;7.87;;;;;;;;;;5092046;28;20200;-83
2023/01/04 08:29:16;;;;;;;9.07;7.27;;;;;;;;;;5092490;28;20200;-83
2023/01/04 08:31:42;;;;;;;7.80;7.07;;;;;;;;;;5106377;28;20210;-83
2023/01/04 08:34:10;;;;;;;8.37;6.87;;;;;;;;;;5100350;28;20207;-83
2023/01/04 08:36:45;;;;;;;8.30;7.37;;;;;;;;;;5096746;28;20629;-83
2023/01/04 08:39:13;;;;;;;8.50;7.70;;;;;;;;;;5081256;28;20265;-83
2023/01/04 08:41:50;;;;;;;13.13;8.63;;;;;;;;;;5094825;28;20219;-83
2023/01/04 08:44:17;;;;;;;17.40;11.17;;;;;;;;;;5101682;28;20683;-83
2023/01/04 08:46:45;;;;;;;11.03;7.20;;;;;;;;;;5096159;28;20626;-84
2023/01/04 08:49:12;;;;;;;9.27;7.67;;;;;;;;;;5089728;28;20745;-81
2023/01/04 08:51:38;;;;;;;9.47;7.17;;;;;;;;;;5094827;28;20284;-83
2023/01/04 08:54:05;;;;;;;7.73;6.30;;;;;;;;;;5100521;28;20691;-83
2023/01/04 08:56:33;;;;;;;6.97;6.17;;;;;;;;;;5105448;28;20200;-83
2023/01/04 08:59:01;;;;;;;6.90;6.10;;;;;;;;;;5103901;28;20214;-82
2023/01/04 09:01:27;;;;;;;22.30;15.00;;;;;;;;;;5111600;28;20252;-82
2023/01/04 09:03:56;;;;;;;11.07;7.97;;;;;;;;;;5099481;28;20235;-83
2023/01/04 09:06:23;;;;;;;7.30;6.33;;;;;;;;;;5104259;28;20197;-83
2023/01/04 09:08:51;;;;;;;8.60;6.80;;;;;;;;;;5078676;28;20650;-83
2023/01/04 09:11:19;;;;;;;8.67;7.13;;;;;;;;;;5077872;28;20714;-83
2023/01/04 09:13:48;;;;;;;8.07;6.83;;;;;;;;;;5091359;28;20200;-85
2023/01/04 09:16:17;;;;;;;7.50;6.80;;;;;;;;;;5084075;28;20758;-82
2023/01/04 09:18:45;;;;;;;7.30;6.53;;;;;;;;;;5086179;28;20206;-83
2023/01/04 09:21:14;;;;;;;9.00;6.73;;;;;;;;;;5091132;28;20206;-82
2023/01/04 09:23:41;;;;;;;8.83;6.53;;;;;;;;;;5091014;28;20208;-83
2023/01/04 09:26:09;;;;;;;11.23;6.73;;;;;;;;;;5091606;28;20200;-83
2023/01/04 09:28:36;;;;;;;7.83;6.87;;;;;;;;;;5078563;28;20292;-82
2023/01/04 09:31:07;;;;;;;8.33;6.97;;;;;;;;;;5091983;28;20235;-82
2023/01/04 09:33:35;;;;;;;9.03;7.27;;;;;;;;;;5077283;28;20201;-83
2023/01/04 09:36:03;;;;;;;10.57;7.50;;;;;;;;;;5090913;28;20203;-83
2023/01/04 09:38:30;;;;;;;7.50;6.47;;;;;;;;;;5091031;28;20210;-83
2023/01/04 09:41:02;;;;;;;9.93;6.67;;;;;;;;;;5090947;28;20630;-83
2023/01/04 09:43:35;;;;;;;7.87;7.10;;;;;;;;;;5091159;28;20206;-83
2023/01/04 09:46:08;;;;;;;16.13;11.33;;;;;;;;;;5090793;28;20207;-82
2023/01/04 09:48:40;;;;;;;10.87;8.10;;;;;;;;;;5090771;28;20197;-83
2023/01/04 09:51:12;;;;;;;11.97;8.37;;;;;;;;;;5090652;28;20328;-83
2023/01/04 09:53:43;;;;;;;9.27;7.67;;;;;;;;;;5082710;28;20261;-81
2023/01/04 09:56:13;;;;;;;9.17;7.70;;;;;;;;;;5070661;28;20605;-81
2023/01/04 09:58:41;;;;;;;13.63;7.43;;;;;;;;;;5079706;28;20277;-81
2023/01/04 10:01:15;;;;;;;7.23;6.23;;;;;;;;;;5090555;28;20208;-81
2023/01/04 10:03:46;;;;;;;8.33;6.23;;;;;;;;;;5079751;28;20734;-81
2023/01/04 10:06:14;;;;;;;6.53;5.80;;;;;;;;;;5089315;28;20192;-81
2023/01/04 10:08:41;;;;;;;6.53;5.93;;;;;;;;;;5090673;28;20633;-81
2023/01/04 10:11:19;;;;;;;10.33;8.80;;;;;;;;;;5090345;28;20285;-81
2023/01/04 10:13:59;;;;;;;10.77;7.00;;;;;;;;;;5090402;28;20203;-81
2023/01/04 10:16:44;;;;;;;7.63;6.67;;;;;;;;;;5079663;28;20203;-80
2023/01/04 10:19:30;;;;;;;7.37;6.40;;;;;;;;;;5089922;28;20232;-82
2023/01/04 10:21:58;;;;;;;9.23;5.87;;;;;;;;;;5090390;28;20211;-81
2023/01/04 10:24:39;;;;;;;9.33;6.47;;;;;;;;;;5090445;28;20212;-81
2023/01/04 10:27:08;;;;;;;6.77;5.97;;;;;;;;;;5090099;28;20200;-81
2023/01/04 10:30:02;;;;;;;9.67;7.63;;;;;;;;;;5079606;28;20200;-81
2023/01/04 10:32:36;;;;;;;6.67;5.43;;;;;;;;;;5077690;28;20205;-82
2023/01/04 10:35:16;;;;;;;7.50;6.70;;;;;;;;;;5090045;28;20260;-82
2023/01/04 10:37:43;;;;;;;9.63;7.97;;;;;;;;;;5100251;28;20634;-82
2023/01/04 10:40:13;;;;;;;12.20;7.07;;;;;;;;;;5103232;28;20204;-82
2023/01/04 10:42:48;;;;;;;9.60;7.50;;;;;;;;;;5080715;28;20196;-81
2023/01/04 10:45:17;;;;;;;10.23;7.87;;;;;;;;;;5108856;28;20223;-82
2023/01/04 10:47:50;;;;;;;9.93;7.47;;;;;;;;;;5097867;28;20215;-82
2023/01/04 10:50:20;;;;;;;11.80;7.60;;;;;;;;;;5090276;28;20612;-82
2023/01/04 10:52:49;;;;;;;13.83;8.43;;;;;;;;;;5089813;28;20694;-82
2023/01/04 10:55:20;;;;;;;10.00;7.17;;;;;;;;;;5090282;28;20204;-82
2023/01/04 10:57:49;;;;;;;10.63;8.60;;;;;;;;;;5076729;28;20209;-82
2023/01/04 11:00:20;;;;;;;13.30;10.40;;;;;;;;;;5081840;28;20200;-82
2023/01/04 11:02:51;;;;;;;9.90;8.90;;;;;;;;;;5086073;28;20205;-82
2023/01/04 11:05:22;;;;;;;13.43;7.20;;;;;;;;;;5089953;28;20229;-83
2023/01/04 11:07:53;;;;;;;14.23;9.33;;;;;;;;;;5094106;28;20249;-83
2023/01/04 11:10:24;;;;;;;10.20;8.37;;;;;;;;;;5111362;28;20199;-82
2023/01/04 11:12:51;;;;;;;12.43;9.10;;;;;;;;;;5103564;28;20216;-82
2023/01/04 11:15:18;;;;;;;15.27;11.27;;;;;;;;;;5098969;28;20204;-82
2023/01/04 11:17:45;;;;;;;10.13;8.97;;;;;;;;;;5107361;28;20667;-82
2023/01/04 11:20:13;;;;;;;24.37;15.67;;;;;;;;;;5093853;28;20204;-83
2023/01/04 11:22:42;;;;;;;15.87;13.07;;;;;;;;;;5093734;28;20204;-82
2023/01/04 11:25:12;;;;;;;17.00;11.20;;;;;;;;;;5107402;28;20603;-84
2023/01/04 11:27:44;;;;;;;12.43;10.23;;;;;;;;;;5114197;28;20195;-82
2023/01/04 11:30:15;;;;;;;11.63;9.37;;;;;;;;;;5113735;28;20214;-83
2023/01/04 11:32:47;;;;;;;14.20;11.77;;;;;;;;;;5105214;28;20200;-83
2023/01/04 11:35:16;;;;;;;21.90;16.67;;;;;;;;;;5096721;28;20286;-83
2023/01/04 11:37:45;;;;;;;15.60;10.53;;;;;;;;;;5103712;28;20196;-83
2023/01/04 11:40:23;;;;;;;18.97;11.63;;;;;;;;;;5093093;28;20295;-82
2023/01/04 11:42:52;;;;;;;21.47;13.33;;;;;;;;;;5093173;28;20211;-81
2023/01/04 11:45:22;;;;;;;98.00;44.87;;;;;;;;;;5093713;28;20204;-83
2023/01/04 11:47:50;;;;;;;50.93;27.43;;;;;;;;;;5093511;28;20215;-83
2023/01/04 11:50:40;;;;;;;21.87;14.77;;;;;;;;;;5093089;28;20215;-82
2023/01/04 11:53:23;;;;;;;16.03;13.00;;;;;;;;;;5092872;28;20207;-83
2023/01/04 11:55:49;;;;;;;14.93;13.33;;;;;;;;;;5090514;28;20196;-82
2023/01/04 11:58:18;;;;;;;18.07;14.47;;;;;;;;;;5092371;28;20575;-83
2023/01/04 12:00:52;;;;;;;27.67;18.77;;;;;;;;;;5084784;28;20207;-83
2023/01/04 12:03:24;;;;;;;25.40;15.70;;;;;;;;;;5101182;28;20200;-83
2023/01/04 12:05:52;;;;;;;22.43;17.40;;;;;;;;;;5099583;28;20233;-83
2023/01/04 12:08:28;;;;;;;21.70;14.67;;;;;;;;;;5114243;28;20628;-83
2023/01/04 12:10:55;;;;;;;15.07;12.30;;;;;;;;;;5086437;28;20219;-84
2023/01/04 12:13:22;;;;;;;21.73;15.00;;;;;;;;;;5113430;28;20199;-83
2023/01/04 12:15:58;;;;;;;37.20;22.20;;;;;;;;;;5100155;28;20200;-83
2023/01/04 12:18:27;;;;;;;55.90;34.73;;;;;;;;;;5100448;28;20212;-83
2023/01/04 12:20:56;;;;;;;21.10;16.23;;;;;;;;;;5092026;28;20279;-84
2023/01/04 12:23:23;;;;;;;20.27;13.87;;;;;;;;;;5092136;28;20675;-84
2023/01/04 12:25:51;;;;;;;31.93;19.40;;;;;;;;;;5079458;28;20204;-84
2023/01/04 12:28:32;;;;;;;28.00;16.87;;;;;;;;;;5093340;28;20204;-84
2023/01/04 12:31:32;;;;;;;20.77;14.53;;;;;;;;;;5112989;28;20223;-83
2023/01/04 12:34:01;;;;;;;28.07;17.53;;;;;;;;;;5018411;28;20243;-83
2023/01/04 12:36:56;;;;;;;33.00;19.67;;;;;;;;;;5003768;28;20195;-84
2023/01/04 12:39:40;;;;;;;29.13;18.33;;;;;;;;;;5053716;28;20204;-83
2023/01/04 12:42:14;;;;;;;42.80;25.57;;;;;;;;;;5086021;28;20649;-83
2023/01/04 12:44:59;;;;;;;43.03;25.53;;;;;;;;;;5086554;28;20234;-84
2023/01/04 12:50:30;;;;;;;23.93;18.60;;;;;;;;;;5079753;28;20693;-84
2023/01/04 12:53:02;;;;;;;16.27;13.60;;;;;;;;;;5093922;28;20280;-84
2023/01/04 12:55:59;;;;;;;17.77;14.60;;;;;;;;;;5102345;28;20675;-84
2023/01/04 12:59:06;;;;;;;23.10;15.33;;;;;;;;;;5079173;28;20209;-84
2023/01/04 13:01:33;;;;;;;18.53;14.33;;;;;;;;;;5097410;28;20204;-83
2023/01/04 13:04:03;;;;;;;19.33;15.47;;;;;;;;;;5112396;28;20209;-84
2023/01/04 13:06:32;;;;;;;14.87;11.90;;;;;;;;;;5085306;28;20214;-83
2023/01/04 13:09:01;;;;;;;14.63;11.97;;;;;;;;;;5098323;28;20204;-84
2023/01/04 13:11:48;;;;;;;12.40;10.60;;;;;;;;;;5091799;28;20223;-84
2023/01/04 13:14:19;;;;;;;12.10;10.90;;;;;;;;;;5102214;28;20233;-85
2023/01/04 13:16:50;;;;;;;12.47;10.93;;;;;;;;;;5093569;28;20210;-84
2023/01/04 13:19:21;;;;;;;11.00;9.90;;;;;;;;;;5075174;28;20197;-84
2023/01/04 13:21:48;;;;;;;12.73;10.60;;;;;;;;;;5071814;28;20201;-83
2023/01/04 13:24:22;;;;;;;14.23;11.27;;;;;;;;;;5090587;28;20211;-84
2023/01/04 13:26:49;;;;;;;12.53;11.17;;;;;;;;;;5091283;28;20290;-85
2023/01/04 13:29:18;;;;;;;13.80;12.43;;;;;;;;;;5091685;28;20596;-84
2023/01/04 13:31:49;;;;;;;18.63;11.63;;;;;;;;;;5091440;28;20222;-84
2023/01/04 13:34:18;;;;;;;13.43;12.03;;;;;;;;;;5090816;28;20208;-84
2023/01/04 13:36:53;;;;;;;13.60;12.10;;;;;;;;;;5075558;28;20209;-83
2023/01/04 13:39:22;;;;;;;12.70;11.40;;;;;;;;;;5081327;28;20200;-86
2023/01/04 13:41:51;;;;;;;22.37;17.57;;;;;;;;;;5091238;28;20228;-84
2023/01/04 13:44:27;;;;;;;48.37;34.07;;;;;;;;;;5091324;28;20227;-84
2023/01/04 13:46:56;;;;;;;29.07;22.20;;;;;;;;;;5091140;28;20235;-84
2023/01/04 13:49:23;;;;;;;22.57;17.10;;;;;;;;;;5091186;28;20207;-85
2023/01/04 13:51:50;;;;;;;16.30;13.57;;;;;;;;;;5097853;28;20227;-84
2023/01/04 13:54:19;;;;;;;27.47;18.57;;;;;;;;;;5111395;28;20218;-83
2023/01/04 13:56:48;;;;;;;37.80;23.93;;;;;;;;;;5078121;28;20204;-85
2023/01/04 13:59:15;;;;;;;34.20;24.97;;;;;;;;;;5077268;28;20204;-84
2023/01/04 14:01:44;;;;;;;78.00;56.67;;;;;;;;;;5098827;28;20673;-84
2023/01/04 14:04:15;;;;;;;30.10;20.27;;;;;;;;;;5084593;28;20278;-84
2023/01/04 14:06:44;;;;;;;44.90;30.13;;;;;;;;;;5110699;28;20735;-85
2023/01/04 14:09:16;;;;;;;71.17;46.10;;;;;;;;;;5084264;28;20635;-85
2023/01/04 14:12:00;;;;;;;37.27;29.63;;;;;;;;;;5110919;28;20584;-84
2023/01/04 14:14:33;;;;;;;33.33;24.90;;;;;;;;;;5111121;28;20199;-86
2023/01/04 14:17:24;;;;;;;25.80;20.43;;;;;;;;;;5097239;28;20265;-85
2023/01/04 14:19:52;;;;;;;23.93;21.33;;;;;;;;;;5089597;28;20663;-85
2023/01/04 14:22:27;;;;;;;25.13;22.17;;;;;;;;;;5074806;28;20207;-85
2023/01/04 14:24:55;;;;;;;33.47;25.40;;;;;;;;;;5090932;28;20583;-85
2023/01/04 14:27:37;;;;;;;22.20;17.47;;;;;;;;;;5090531;28;20211;-85
2023/01/04 14:30:15;;;;;;;14.43;12.97;;;;;;;;;;5104311;28;20203;-84
2023/01/04 14:32:42;;;;;;;14.83;13.40;;;;;;;;;;5090312;28;20706;-84
2023/01/04 14:35:13;;;;;;;17.80;15.17;;;;;;;;;;5088411;28;20204;-85
2023/01/04 14:37:40;;;;;;;21.97;15.17;;;;;;;;;;5079983;28;20635;-85
2023/01/04 14:40:15;;;;;;;20.40;18.20;;;;;;;;;;5090766;28;20200;-84
2023/01/04 14:42:43;;;;;;;30.50;23.30;;;;;;;;;;5079894;28;20231;-84
2023/01/04 14:45:12;;;;;;;21.27;17.00;;;;;;;;;;5107565;28;20242;-87
2023/01/04 14:47:40;;;;;;;16.07;13.63;;;;;;;;;;5103288;28;20210;-85
2023/01/04 14:50:08;;;;;;;22.37;16.63;;;;;;;;;;5094521;28;20196;-85
2023/01/04 14:52:35;;;;;;;24.37;20.20;;;;;;;;;;5094358;28;20224;-84
2023/01/04 14:55:03;;;;;;;18.47;16.07;;;;;;;;;;5094316;28;20211;-84
2023/01/04 14:57:30;;;;;;;13.70;11.73;;;;;;;;;;5107627;28;20199;-86
2023/01/04 14:59:59;;;;;;;16.37;13.17;;;;;;;;;;5114941;28;20195;-85
2023/01/04 15:02:28;;;;;;;16.33;14.73;;;;;;;;;;5101259;28;20615;-85
2023/01/04 15:04:54;;;;;;;21.67;16.67;;;;;;;;;;5094541;28;20235;-85
2023/01/04 15:07:36;;;;;;;42.23;32.57;;;;;;;;;;5080611;28;20683;-84
2023/01/04 15:10:04;;;;;;;29.57;24.93;;;;;;;;;;5083355;28;20640;-84
2023/01/04 15:12:32;;;;;;;25.03;21.67;;;;;;;;;;5078975;28;20741;-85
2023/01/04 15:15:00;;;;;;;26.90;23.07;;;;;;;;;;5066461;28;20204;-85
2023/01/04 15:17:30;;;;;;;32.10;26.93;;;;;;;;;;5097944;28;20204;-85
2023/01/04 15:19:57;;;;;;;24.37;17.00;;;;;;;;;;5085140;28;20208;-84
2023/01/04 15:22:24;;;;;;;18.63;16.73;;;;;;;;;;5088223;28;20214;-84
2023/01/04 15:24:52;;;;;;;30.23;22.80;;;;;;;;;;5091851;28;20208;-84
2023/01/04 15:27:19;;;;;;;70.40;43.13;;;;;;;;;;5084739;28;20201;-85
2023/01/04 15:29:46;;;;;;;41.65;32.03;;;;;;;;;;5062245;28;20835;-85
2023/01/04 15:32:14;;;;;;;41.17;31.30;;;;;;;;;;5072789;28;20702;-85
2023/01/04 15:34:41;;;;;;;49.40;35.53;;;;;;;;;;5091673;28;20709;-85
2023/01/04 15:37:08;;;;;;;34.33;26.10;;;;;;;;;;5093058;28;20218;-85
2023/01/04 15:39:36;;;;;;;24.97;17.20;;;;;;;;;;5075737;28;20640;-86
2023/01/04 15:44:49;;;;;;;16.87;13.17;;;;;;;;;;5065000;28;20215;-85
2023/01/04 15:47:17;;;;;;;37.77;26.60;;;;;;;;;;5083665;28;20698;-85
2023/01/04 15:49:44;;;;;;;23.07;18.77;;;;;;;;;;5094500;28;20214;-86